Time;durP1;ratioP1;P1;durP2;ratioP2;P2;SDS_P1;SDS_P2;PMS_P1;PMS_P2;Temp;Humidity;BMP_temperature;BMP_pressure;BME280_temperature;BME280_humidity;BME280_pressure;Samples;Min_cycle;Max_cycle;Signal;HPM_P1;HPM_P2
2021/09/28 00:01:06;;;;;;;4.63;1.60;;;;;;;;;;5092044;28;20107;-69
2021/09/28 00:03:31;;;;;;;3.38;1.58;;;;;;;;;;5093305;28;20078;-69
2021/09/28 00:05:56;;;;;;;4.88;2.00;;;;;;;;;;5086954;28;20031;-68
2021/09/28 00:08:23;;;;;;;3.92;1.60;;;;;;;;;;5092835;28;20019;-69
2021/09/28 00:10:48;;;;;;;3.10;1.65;;;;;;;;;;5087667;28;20085;-69
2021/09/28 00:13:16;;;;;;;3.72;1.77;;;;;;;;;;5077941;28;20366;-69
2021/09/28 00:15:41;;;;;;;3.60;1.52;;;;;;;;;;5055247;28;20056;-69
2021/09/28 00:18:06;;;;;;;4.40;1.52;;;;;;;;;;5072961;28;20067;-69
2021/09/28 00:20:37;;;;;;;4.75;1.40;;;;;;;;;;5073090;28;20537;-68
2021/09/28 00:23:05;;;;;;;5.57;1.60;;;;;;;;;;5073238;28;20059;-69
2021/09/28 00:25:30;;;;;;;2.67;1.60;;;;;;;;;;5073146;28;20029;-69
2021/09/28 00:27:56;;;;;;;6.35;2.35;;;;;;;;;;5073430;28;20020;-69
2021/09/28 00:30:21;;;;;;;3.05;1.70;;;;;;;;;;5082410;28;20494;-69
2021/09/28 00:32:47;;;;;;;2.38;1.40;;;;;;;;;;5073765;28;20063;-69
2021/09/28 00:35:12;;;;;;;2.70;1.70;;;;;;;;;;5072857;28;20052;-69
2021/09/28 00:37:38;;;;;;;3.95;1.58;;;;;;;;;;5073070;28;20024;-69
2021/09/28 00:40:04;;;;;;;3.88;1.73;;;;;;;;;;5078582;28;20101;-69
2021/09/28 00:42:29;;;;;;;3.83;1.67;;;;;;;;;;5093020;28;20028;-68
2021/09/28 00:44:54;;;;;;;5.13;1.90;;;;;;;;;;5077404;28;20135;-69
2021/09/28 00:47:20;;;;;;;5.47;1.70;;;;;;;;;;5072617;28;20029;-69
2021/09/28 00:49:47;;;;;;;2.45;1.50;;;;;;;;;;5072332;28;20353;-69
2021/09/28 00:52:16;;;;;;;4.20;1.80;;;;;;;;;;5084271;28;20491;-69
2021/09/28 00:54:44;;;;;;;2.85;1.80;;;;;;;;;;5092614;28;20027;-69
2021/09/28 00:57:10;;;;;;;5.00;1.88;;;;;;;;;;5085957;28;20425;-69
2021/09/28 00:59:38;;;;;;;7.68;1.80;;;;;;;;;;5092901;28;20031;-69
2021/09/28 01:02:05;;;;;;;3.88;1.60;;;;;;;;;;5061954;28;20025;-69
2021/09/28 01:04:30;;;;;;;2.22;1.60;;;;;;;;;;5051793;28;20041;-69
2021/09/28 01:06:58;;;;;;;3.78;1.50;;;;;;;;;;5052151;28;20384;-70
2021/09/28 01:09:24;;;;;;;4.25;1.60;;;;;;;;;;5058331;28;20024;-70
2021/09/28 01:11:49;;;;;;;3.10;1.80;;;;;;;;;;5071981;28;20499;-69
2021/09/28 01:14:15;;;;;;;2.50;1.55;;;;;;;;;;5072549;28;20066;-69
2021/09/28 01:16:40;;;;;;;4.60;1.90;;;;;;;;;;5083622;28;20188;-69
2021/09/28 01:19:06;;;;;;;4.72;1.92;;;;;;;;;;5090376;28;20035;-69
2021/09/28 01:21:31;;;;;;;3.67;1.70;;;;;;;;;;5090102;28;20062;-69
2021/09/28 01:23:57;;;;;;;5.80;1.83;;;;;;;;;;5091731;28;20028;-69
2021/09/28 01:26:26;;;;;;;2.63;1.70;;;;;;;;;;5083391;28;20024;-69
2021/09/28 01:28:55;;;;;;;3.75;1.80;;;;;;;;;;5071583;28;20094;-68
2021/09/28 01:31:23;;;;;;;4.82;1.67;;;;;;;;;;5078266;28;20028;-69
2021/09/28 01:33:49;;;;;;;3.47;1.63;;;;;;;;;;5091181;28;20103;-69
2021/09/28 01:36:15;;;;;;;4.72;1.80;;;;;;;;;;5083004;28;20536;-69
2021/09/28 01:38:40;;;;;;;4.93;1.70;;;;;;;;;;5071491;28;20028;-69
2021/09/28 01:41:06;;;;;;;3.50;2.00;;;;;;;;;;5075919;28;20024;-69
2021/09/28 01:43:32;;;;;;;4.15;1.65;;;;;;;;;;5091145;28;20036;-69
2021/09/28 01:46:00;;;;;;;4.72;2.08;;;;;;;;;;5091426;28;20028;-69
2021/09/28 01:48:39;;;;;;;4.45;1.70;;;;;;;;;;5091623;28;20361;-68
2021/09/28 01:51:05;;;;;;;3.20;1.77;;;;;;;;;;5073350;28;20031;-69
2021/09/28 01:53:30;;;;;;;3.05;1.55;;;;;;;;;;5089743;28;20115;-69
2021/09/28 01:55:56;;;;;;;3.67;1.80;;;;;;;;;;5081957;28;20035;-68
2021/09/28 01:58:21;;;;;;;4.43;1.52;;;;;;;;;;5077896;28;20048;-69
2021/09/28 02:00:47;;;;;;;3.60;1.60;;;;;;;;;;5086514;28;20034;-68
2021/09/28 02:03:12;;;;;;;4.97;1.90;;;;;;;;;;5071151;28;20127;-69
2021/09/28 02:05:39;;;;;;;4.10;1.80;;;;;;;;;;5071173;28;20104;-69
2021/09/28 02:08:05;;;;;;;4.18;2.35;;;;;;;;;;5078736;28;20213;-69
2021/09/28 02:10:30;;;;;;;4.18;1.92;;;;;;;;;;5074427;28;20534;-69
2021/09/28 02:12:56;;;;;;;3.95;1.67;;;;;;;;;;5079645;28;20028;-69
2021/09/28 02:15:22;;;;;;;4.43;1.83;;;;;;;;;;5071022;28;20440;-69
2021/09/28 02:17:47;;;;;;;2.33;1.58;;;;;;;;;;5070926;28;20130;-69
2021/09/28 02:20:13;;;;;;;3.85;1.70;;;;;;;;;;5053070;28;20054;-69
2021/09/28 02:22:38;;;;;;;2.10;1.60;;;;;;;;;;5082936;28;20084;-69
2021/09/28 02:25:06;;;;;;;6.68;2.30;;;;;;;;;;5074416;28;20025;-69
2021/09/28 02:27:32;;;;;;;4.03;1.83;;;;;;;;;;5087082;28;20380;-69
2021/09/28 02:29:57;;;;;;;3.60;1.52;;;;;;;;;;5070751;28;20024;-69
2021/09/28 02:32:23;;;;;;;4.30;1.90;;;;;;;;;;5076215;28;20030;-69
2021/09/28 02:34:48;;;;;;;3.65;1.95;;;;;;;;;;5090639;28;20480;-69
2021/09/28 02:37:14;;;;;;;4.70;1.70;;;;;;;;;;5090758;28;20376;-69
2021/09/28 02:39:42;;;;;;;4.80;2.10;;;;;;;;;;5090686;28;20023;-69
2021/09/28 02:42:09;;;;;;;3.55;2.00;;;;;;;;;;5090821;28;20389;-69
2021/09/28 02:44:34;;;;;;;4.05;1.98;;;;;;;;;;5073380;28;20017;-69
2021/09/28 02:47:00;;;;;;;4.15;1.80;;;;;;;;;;5070270;28;20038;-69
2021/09/28 02:49:25;;;;;;;6.47;1.80;;;;;;;;;;5086268;28;20418;-69
2021/09/28 02:51:51;;;;;;;2.67;1.70;;;;;;;;;;5090689;28;20090;-69
2021/09/28 02:54:16;;;;;;;3.60;1.90;;;;;;;;;;5059789;28;20082;-69
2021/09/28 02:56:42;;;;;;;4.13;2.00;;;;;;;;;;5070429;28;20020;-69
2021/09/28 02:59:08;;;;;;;4.80;1.73;;;;;;;;;;5083202;28;20043;-69
2021/09/28 03:01:33;;;;;;;4.05;1.75;;;;;;;;;;5073526;28;20086;-69
2021/09/28 03:03:59;;;;;;;3.40;1.83;;;;;;;;;;5073901;28;20089;-69
2021/09/28 03:06:24;;;;;;;4.53;2.25;;;;;;;;;;5090098;28;20186;-69
2021/09/28 03:08:49;;;;;;;5.53;2.00;;;;;;;;;;5081683;28;20017;-69
2021/09/28 03:11:16;;;;;;;5.38;1.90;;;;;;;;;;5080182;28;20024;-69
2021/09/28 03:13:41;;;;;;;3.97;2.13;;;;;;;;;;5090518;28;20494;-69
2021/09/28 03:16:07;;;;;;;6.47;2.15;;;;;;;;;;5090433;28;20051;-69
2021/09/28 03:18:32;;;;;;;3.65;1.98;;;;;;;;;;5090175;28;20028;-68
2021/09/28 03:20:57;;;;;;;4.05;1.92;;;;;;;;;;5086393;28;20031;-68
2021/09/28 03:23:23;;;;;;;4.55;1.90;;;;;;;;;;5080619;28;20073;-68
2021/09/28 03:25:48;;;;;;;6.40;2.45;;;;;;;;;;5070249;28;20120;-69
2021/09/28 03:28:16;;;;;;;4.88;2.20;;;;;;;;;;5070079;28;20025;-68
2021/09/28 03:30:42;;;;;;;5.45;2.20;;;;;;;;;;5071342;28;20039;-68
2021/09/28 03:33:07;;;;;;;5.05;2.00;;;;;;;;;;5070003;28;20024;-68
2021/09/28 03:35:32;;;;;;;5.60;2.20;;;;;;;;;;5071251;28;20024;-69
2021/09/28 03:37:58;;;;;;;6.63;2.15;;;;;;;;;;5071556;28;20032;-69
2021/09/28 03:40:25;;;;;;;4.90;2.13;;;;;;;;;;5073820;28;20025;-69
2021/09/28 03:42:51;;;;;;;4.43;2.20;;;;;;;;;;5090923;28;20461;-69
2021/09/28 03:45:16;;;;;;;5.03;2.05;;;;;;;;;;5093635;28;20044;-69
2021/09/28 03:47:42;;;;;;;5.75;3.13;;;;;;;;;;5092282;28;20020;-69
2021/09/28 03:50:08;;;;;;;3.88;2.10;;;;;;;;;;5082825;28;20048;-69
2021/09/28 03:52:34;;;;;;;4.68;1.98;;;;;;;;;;5093702;28;20479;-69
2021/09/28 03:55:00;;;;;;;3.45;1.90;;;;;;;;;;5066794;28;20423;-69
2021/09/28 03:57:25;;;;;;;5.13;2.35;;;;;;;;;;5073336;28;20032;-69
2021/09/28 03:59:51;;;;;;;5.50;2.33;;;;;;;;;;5073592;28;20505;-69
2021/09/28 04:02:16;;;;;;;4.32;2.00;;;;;;;;;;5073197;28;20032;-69
2021/09/28 04:04:42;;;;;;;3.92;2.10;;;;;;;;;;5073185;28;20037;-69
2021/09/28 04:07:07;;;;;;;5.07;2.10;;;;;;;;;;5088192;28;20033;-68
2021/09/28 04:09:33;;;;;;;3.83;2.30;;;;;;;;;;5093393;28;20024;-68
2021/09/28 04:11:58;;;;;;;3.75;2.30;;;;;;;;;;5073513;28;20024;-69
2021/09/28 04:14:24;;;;;;;8.20;2.15;;;;;;;;;;5053285;28;20031;-69
2021/09/28 04:16:49;;;;;;;4.82;2.17;;;;;;;;;;5053212;28;20048;-68
2021/09/28 04:19:15;;;;;;;4.22;2.53;;;;;;;;;;5065765;28;20059;-69
2021/09/28 04:21:42;;;;;;;4.85;2.20;;;;;;;;;;5067913;28;20029;-69
2021/09/28 04:24:08;;;;;;;4.70;2.35;;;;;;;;;;5057225;28;20027;-69
2021/09/28 04:26:33;;;;;;;7.55;2.30;;;;;;;;;;5067428;28;20028;-69
2021/09/28 04:28:59;;;;;;;4.50;2.05;;;;;;;;;;5059000;28;20515;-69
2021/09/28 04:31:25;;;;;;;4.20;2.15;;;;;;;;;;5073005;28;20033;-68
2021/09/28 04:33:50;;;;;;;5.50;2.50;;;;;;;;;;5072513;28;20024;-68
2021/09/28 04:36:16;;;;;;;5.28;2.42;;;;;;;;;;5072694;28;20470;-69
2021/09/28 04:38:41;;;;;;;5.05;2.38;;;;;;;;;;5072682;28;20058;-69
2021/09/28 04:41:07;;;;;;;3.00;2.20;;;;;;;;;;5085483;28;20379;-68
2021/09/28 04:43:33;;;;;;;6.18;2.55;;;;;;;;;;5074464;28;20025;-68
2021/09/28 04:45:58;;;;;;;6.30;2.83;;;;;;;;;;5053580;28;20025;-68
2021/09/28 04:48:24;;;;;;;5.72;2.80;;;;;;;;;;5059531;28;20021;-68
2021/09/28 04:50:52;;;;;;;8.38;3.65;;;;;;;;;;5071074;28;20052;-68
2021/09/28 04:53:19;;;;;;;5.07;2.70;;;;;;;;;;5072105;28;20102;-69
2021/09/28 04:55:45;;;;;;;7.53;2.72;;;;;;;;;;5071715;28;20560;-68
2021/09/28 04:58:11;;;;;;;3.67;3.00;;;;;;;;;;5072257;28;20020;-68
2021/09/28 05:00:36;;;;;;;5.75;2.95;;;;;;;;;;5073066;28;20036;-69
2021/09/28 05:03:02;;;;;;;5.90;3.17;;;;;;;;;;5075204;28;20491;-68
2021/09/28 05:05:27;;;;;;;5.38;2.55;;;;;;;;;;5072251;28;20460;-69
2021/09/28 05:07:52;;;;;;;5.22;3.03;;;;;;;;;;5069119;28;20036;-69
2021/09/28 05:10:18;;;;;;;4.40;2.95;;;;;;;;;;5053123;28;20059;-69
2021/09/28 05:12:43;;;;;;;6.65;2.80;;;;;;;;;;5069302;28;20028;-69
2021/09/28 05:15:09;;;;;;;5.85;2.78;;;;;;;;;;5072288;28;20414;-68
2021/09/28 05:17:35;;;;;;;6.22;2.92;;;;;;;;;;5070929;28;20024;-68
2021/09/28 05:20:05;;;;;;;6.15;3.17;;;;;;;;;;5053089;28;20345;-69
2021/09/28 05:22:31;;;;;;;6.50;2.75;;;;;;;;;;5051896;28;20396;-69
2021/09/28 05:24:56;;;;;;;8.73;2.85;;;;;;;;;;5062664;28;20024;-68
2021/09/28 05:27:22;;;;;;;3.95;2.33;;;;;;;;;;5070645;28;20166;-69
2021/09/28 05:29:47;;;;;;;6.28;2.80;;;;;;;;;;5058079;28;20021;-69
2021/09/28 05:32:13;;;;;;;5.25;2.50;;;;;;;;;;5058407;28;20056;-69
2021/09/28 05:34:38;;;;;;;5.30;2.65;;;;;;;;;;5054883;28;20107;-68
2021/09/28 05:37:04;;;;;;;4.22;2.55;;;;;;;;;;5051466;28;20025;-69
2021/09/28 05:39:30;;;;;;;3.55;2.35;;;;;;;;;;5051556;28;20040;-68
2021/09/28 05:41:55;;;;;;;7.85;2.47;;;;;;;;;;5033718;28;20027;-69
2021/09/28 05:44:20;;;;;;;5.40;2.60;;;;;;;;;;5071828;28;20044;-69
2021/09/28 05:46:46;;;;;;;4.30;2.60;;;;;;;;;;5051410;28;20029;-69
2021/09/28 05:49:11;;;;;;;3.95;2.08;;;;;;;;;;5051226;28;20451;-69
2021/09/28 05:51:37;;;;;;;6.20;2.30;;;;;;;;;;5056822;28;20024;-70
2021/09/28 05:54:05;;;;;;;3.70;2.15;;;;;;;;;;5070560;28;20051;-69
2021/09/28 05:56:30;;;;;;;4.70;2.30;;;;;;;;;;5059875;28;20021;-69
2021/09/28 05:58:57;;;;;;;5.85;2.42;;;;;;;;;;5051491;28;20027;-68
2021/09/28 06:01:22;;;;;;;3.65;2.30;;;;;;;;;;5050791;28;20029;-68
2021/09/28 06:03:48;;;;;;;4.57;2.25;;;;;;;;;;5059881;28;20550;-69
2021/09/28 06:06:13;;;;;;;5.32;2.40;;;;;;;;;;5070841;28;20130;-68
2021/09/28 06:08:39;;;;;;;5.07;2.10;;;;;;;;;;5062129;28;20530;-68
2021/09/28 06:11:04;;;;;;;5.20;2.50;;;;;;;;;;5068899;28;20040;-68
2021/09/28 06:13:30;;;;;;;6.82;2.42;;;;;;;;;;5069263;28;20468;-68
2021/09/28 06:15:56;;;;;;;4.57;2.30;;;;;;;;;;5074647;28;20331;-69
2021/09/28 06:18:22;;;;;;;5.05;2.17;;;;;;;;;;5070745;28;20033;-69
2021/09/28 06:20:48;;;;;;;4.22;2.15;;;;;;;;;;5069559;28;20392;-69
2021/09/28 06:23:13;;;;;;;4.70;2.20;;;;;;;;;;5082571;28;20020;-68
2021/09/28 06:25:39;;;;;;;3.75;2.55;;;;;;;;;;5091257;28;20044;-68
2021/09/28 06:28:05;;;;;;;3.88;2.22;;;;;;;;;;5072109;28;20024;-69
2021/09/28 06:30:30;;;;;;;3.92;2.08;;;;;;;;;;5070883;28;20476;-68
2021/09/28 06:32:56;;;;;;;3.78;2.20;;;;;;;;;;5070740;28;20491;-69
2021/09/28 06:35:21;;;;;;;4.32;2.15;;;;;;;;;;5070688;28;20033;-68
2021/09/28 06:37:47;;;;;;;3.65;2.08;;;;;;;;;;5070636;28;20429;-69
2021/09/28 06:40:13;;;;;;;4.18;2.30;;;;;;;;;;5088676;28;20053;-69
2021/09/28 06:42:38;;;;;;;5.00;2.30;;;;;;;;;;5090884;28;20028;-69
2021/09/28 06:45:04;;;;;;;4.32;2.53;;;;;;;;;;5090793;28;20031;-68
2021/09/28 06:47:29;;;;;;;4.40;2.28;;;;;;;;;;5062944;28;20384;-68
2021/09/28 06:49:55;;;;;;;4.63;2.47;;;;;;;;;;5070845;28;20036;-68
2021/09/28 06:52:20;;;;;;;4.65;2.40;;;;;;;;;;5070560;28;20032;-69
2021/09/28 06:54:46;;;;;;;3.83;2.30;;;;;;;;;;5071039;28;20016;-69
2021/09/28 06:57:11;;;;;;;3.88;2.42;;;;;;;;;;5070356;28;20028;-68
2021/09/28 06:59:37;;;;;;;4.80;2.40;;;;;;;;;;5070450;28;20029;-69
2021/09/28 07:02:02;;;;;;;6.60;2.67;;;;;;;;;;5070249;28;20104;-69
2021/09/28 07:04:29;;;;;;;5.30;2.67;;;;;;;;;;5070171;28;20050;-68
2021/09/28 07:06:54;;;;;;;5.93;2.40;;;;;;;;;;5070122;28;20016;-68
2021/09/28 07:09:20;;;;;;;4.28;2.50;;;;;;;;;;5070300;28;20070;-69
2021/09/28 07:11:45;;;;;;;4.75;2.75;;;;;;;;;;5070412;28;20393;-67
2021/09/28 07:14:11;;;;;;;4.72;2.83;;;;;;;;;;5076733;28;20044;-68
2021/09/28 07:16:36;;;;;;;5.25;3.17;;;;;;;;;;5087690;28;20341;-67
2021/09/28 07:19:02;;;;;;;5.68;2.60;;;;;;;;;;5092770;28;20111;-68
2021/09/28 07:21:27;;;;;;;4.72;2.70;;;;;;;;;;5077702;28;20031;-67
2021/09/28 07:23:53;;;;;;;3.13;2.50;;;;;;;;;;5073860;28;20127;-68
2021/09/28 07:26:18;;;;;;;7.03;2.38;;;;;;;;;;5060280;28;20536;-68
2021/09/28 07:28:44;;;;;;;4.80;2.42;;;;;;;;;;5071121;28;20418;-69
2021/09/28 07:31:09;;;;;;;3.85;2.58;;;;;;;;;;5094166;28;20166;-69
2021/09/28 07:33:35;;;;;;;4.90;2.50;;;;;;;;;;5088747;28;20103;-68
2021/09/28 07:36:04;;;;;;;5.28;2.75;;;;;;;;;;5074279;28;20024;-68
2021/09/28 07:38:29;;;;;;;6.28;2.40;;;;;;;;;;5075071;28;20021;-67
2021/09/28 07:40:55;;;;;;;5.32;2.22;;;;;;;;;;5090309;28;20110;-68
2021/09/28 07:43:20;;;;;;;5.85;2.33;;;;;;;;;;5075191;28;20063;-68
2021/09/28 07:45:46;;;;;;;5.00;2.65;;;;;;;;;;5089024;28;20097;-68
2021/09/28 07:48:12;;;;;;;4.53;2.50;;;;;;;;;;5071182;28;20032;-68
2021/09/28 07:50:37;;;;;;;5.00;2.40;;;;;;;;;;5094115;28;20066;-70
2021/09/28 07:53:06;;;;;;;5.32;2.80;;;;;;;;;;5078824;28;20013;-68
2021/09/28 07:55:32;;;;;;;5.32;2.30;;;;;;;;;;5073619;28;20023;-69
2021/09/28 07:57:57;;;;;;;5.75;2.53;;;;;;;;;;5073518;28;20025;-69
2021/09/28 08:00:23;;;;;;;5.47;2.75;;;;;;;;;;5073374;28;20027;-68
2021/09/28 08:02:48;;;;;;;4.15;2.60;;;;;;;;;;5055482;28;20123;-68
2021/09/28 08:05:13;;;;;;;4.20;2.63;;;;;;;;;;5072497;28;20031;-67
2021/09/28 08:07:39;;;;;;;6.70;2.50;;;;;;;;;;5072856;28;20016;-68
2021/09/28 08:10:09;;;;;;;6.05;2.40;;;;;;;;;;5072517;28;20017;-68
2021/09/28 08:12:35;;;;;;;3.45;2.42;;;;;;;;;;5054558;28;20028;-69
2021/09/28 08:15:00;;;;;;;3.25;2.60;;;;;;;;;;5073027;28;20032;-69
2021/09/28 08:17:26;;;;;;;4.07;2.92;;;;;;;;;;5073346;28;20059;-68
2021/09/28 08:19:52;;;;;;;4.22;2.70;;;;;;;;;;5073195;28;20036;-69
2021/09/28 08:22:18;;;;;;;8.52;3.00;;;;;;;;;;5054644;28;20021;-69
2021/09/28 08:24:44;;;;;;;3.42;2.67;;;;;;;;;;5054000;28;20472;-68
2021/09/28 08:29:55;;;;;;;4.68;2.67;;;;;;;;;;5072169;28;20034;-69
2021/09/28 08:32:20;;;;;;;4.13;2.63;;;;;;;;;;5053881;28;20028;-69
2021/09/28 08:34:46;;;;;;;4.30;2.88;;;;;;;;;;5072317;28;20029;-69
2021/09/28 08:37:12;;;;;;;3.80;2.67;;;;;;;;;;5072034;28;20025;-68
2021/09/28 08:39:38;;;;;;;5.93;2.83;;;;;;;;;;5071774;28;20025;-67
2021/09/28 08:42:04;;;;;;;7.03;3.30;;;;;;;;;;5082054;28;20532;-68
2021/09/28 08:44:30;;;;;;;4.55;2.80;;;;;;;;;;5063715;28;20037;-68
2021/09/28 08:46:55;;;;;;;3.67;2.60;;;;;;;;;;5071893;28;20024;-68
2021/09/28 08:49:22;;;;;;;4.07;2.70;;;;;;;;;;5071574;28;21003;-68
2021/09/28 08:51:48;;;;;;;4.05;2.88;;;;;;;;;;5071922;28;20028;-69
2021/09/28 08:54:15;;;;;;;4.00;2.70;;;;;;;;;;5071714;28;20024;-69
2021/09/28 08:56:41;;;;;;;5.55;3.10;;;;;;;;;;5071641;28;20067;-69
2021/09/28 08:59:07;;;;;;;10.35;2.85;;;;;;;;;;5071528;28;20484;-68
2021/09/28 09:01:36;;;;;;;4.13;2.30;;;;;;;;;;5053505;28;20090;-69
2021/09/28 09:04:16;;;;;;;5.88;2.70;;;;;;;;;;5071163;28;20094;-68
2021/09/28 09:06:44;;;;;;;4.72;2.75;;;;;;;;;;5071502;28;20043;-69
2021/09/28 09:09:10;;;;;;;7.30;2.40;;;;;;;;;;5071056;28;20023;-69
2021/09/28 09:11:42;;;;;;;6.85;3.00;;;;;;;;;;5071281;28;20460;-69
2021/09/28 09:14:21;;;;;;;6.43;2.90;;;;;;;;;;5071965;28;20158;-68
2021/09/28 09:16:49;;;;;;;5.30;2.80;;;;;;;;;;5072382;28;20017;-69
2021/09/28 09:19:19;;;;;;;4.88;2.22;;;;;;;;;;5071767;28;20028;-68
2021/09/28 09:21:58;;;;;;;3.95;2.40;;;;;;;;;;5071842;28;20029;-68
2021/09/28 09:24:41;;;;;;;5.65;2.70;;;;;;;;;;5071884;28;20515;-68
2021/09/28 09:27:09;;;;;;;3.50;2.20;;;;;;;;;;5072176;28;20103;-68
2021/09/28 09:29:34;;;;;;;3.83;2.35;;;;;;;;;;5071823;28;20249;-69
2021/09/28 09:32:00;;;;;;;4.57;3.25;;;;;;;;;;5071796;28;20027;-69
2021/09/28 09:34:27;;;;;;;4.35;2.42;;;;;;;;;;5071493;28;20035;-69
2021/09/28 09:37:07;;;;;;;5.72;2.60;;;;;;;;;;5071197;28;20028;-69
2021/09/28 09:39:53;;;;;;;9.52;2.58;;;;;;;;;;5053535;28;20071;-69
2021/09/28 09:42:20;;;;;;;4.78;2.60;;;;;;;;;;5071785;28;20024;-69
2021/09/28 09:44:46;;;;;;;3.78;2.60;;;;;;;;;;5071604;28;20226;-68
2021/09/28 09:47:45;;;;;;;6.93;2.60;;;;;;;;;;5071698;28;20055;-70
2021/09/28 09:50:11;;;;;;;4.43;2.63;;;;;;;;;;5047949;28;20446;-69
2021/09/28 09:52:56;;;;;;;6.32;2.33;;;;;;;;;;5071463;28;20035;-68
2021/09/28 09:55:28;;;;;;;4.05;2.20;;;;;;;;;;5068270;28;20028;-69
2021/09/28 09:57:54;;;;;;;4.78;2.25;;;;;;;;;;5049339;28;20330;-69
2021/09/28 10:00:21;;;;;;;2.65;2.08;;;;;;;;;;5071115;28;20059;-69
2021/09/28 10:02:47;;;;;;;4.85;2.15;;;;;;;;;;5071003;28;20077;-69
2021/09/28 10:05:13;;;;;;;3.97;2.30;;;;;;;;;;5070279;28;20111;-69
2021/09/28 10:07:39;;;;;;;3.47;1.95;;;;;;;;;;5070489;28;20484;-68
2021/09/28 10:10:13;;;;;;;4.32;1.83;;;;;;;;;;5070417;28;20029;-68
2021/09/28 10:12:39;;;;;;;2.90;1.92;;;;;;;;;;5070693;28;20020;-68
2021/09/28 10:15:06;;;;;;;5.90;2.00;;;;;;;;;;5070386;28;20380;-68
2021/09/28 10:17:38;;;;;;;4.20;1.92;;;;;;;;;;5070075;28;20480;-69
2021/09/28 10:20:06;;;;;;;4.65;2.00;;;;;;;;;;5070312;28;20375;-69
2021/09/28 10:22:53;;;;;;;4.13;1.85;;;;;;;;;;5070080;28;20036;-68
2021/09/28 10:25:34;;;;;;;5.45;2.05;;;;;;;;;;5052131;28;20388;-68
2021/09/28 10:28:05;;;;;;;5.80;1.90;;;;;;;;;;5070131;28;20095;-70
2021/09/28 10:30:38;;;;;;;3.88;1.80;;;;;;;;;;5070012;28;20047;-69
2021/09/28 10:33:05;;;;;;;1.98;1.50;;;;;;;;;;5069993;28;20016;-69
2021/09/28 10:35:32;;;;;;;6.05;1.90;;;;;;;;;;5069908;28;20044;-69
2021/09/28 10:38:00;;;;;;;3.95;1.60;;;;;;;;;;5069899;28;20434;-69
2021/09/28 10:40:25;;;;;;;6.05;1.40;;;;;;;;;;5069708;28;20035;-69
2021/09/28 10:43:03;;;;;;;2.97;1.50;;;;;;;;;;5069930;28;20404;-68
2021/09/28 10:45:28;;;;;;;2.88;1.40;;;;;;;;;;5085300;28;20062;-69
2021/09/28 10:47:56;;;;;;;4.25;1.55;;;;;;;;;;5068577;28;20133;-68
2021/09/28 10:50:30;;;;;;;5.55;1.60;;;;;;;;;;5069693;28;20027;-69
2021/09/28 10:53:01;;;;;;;5.05;1.63;;;;;;;;;;5070034;28;20035;-68
2021/09/28 10:55:38;;;;;;;4.40;1.73;;;;;;;;;;5069590;28;20017;-69
2021/09/28 10:58:15;;;;;;;4.22;1.58;;;;;;;;;;5069580;28;20079;-68
2021/09/28 11:00:40;;;;;;;5.18;1.80;;;;;;;;;;5069763;28;20043;-69
2021/09/28 11:03:10;;;;;;;3.78;1.60;;;;;;;;;;4999865;28;1995074;-68
2021/09/28 11:05:42;;;;;;;5.15;1.70;;;;;;;;;;5070320;28;20043;-69
2021/09/28 11:08:12;;;;;;;3.22;1.60;;;;;;;;;;5052517;28;20016;-69
2021/09/28 11:10:38;;;;;;;3.80;1.50;;;;;;;;;;5070578;28;20021;-68
2021/09/28 11:13:09;;;;;;;3.80;1.83;;;;;;;;;;5070498;28;20078;-68
2021/09/28 11:15:34;;;;;;;4.40;1.60;;;;;;;;;;5070359;28;20017;-69
2021/09/28 11:18:10;;;;;;;4.13;1.80;;;;;;;;;;5070371;28;20500;-68
2021/09/28 11:20:36;;;;;;;4.40;1.70;;;;;;;;;;5070210;28;20033;-68
2021/09/28 11:23:08;;;;;;;5.35;1.90;;;;;;;;;;5070780;28;20026;-68
2021/09/28 11:25:36;;;;;;;3.88;1.77;;;;;;;;;;5070238;28;20036;-69
2021/09/28 11:28:02;;;;;;;3.30;1.70;;;;;;;;;;5070342;28;20019;-69
2021/09/28 11:30:28;;;;;;;3.97;1.95;;;;;;;;;;5070227;28;20507;-69
2021/09/28 11:33:11;;;;;;;3.55;2.10;;;;;;;;;;5070245;28;20055;-69
2021/09/28 11:35:37;;;;;;;6.05;2.17;;;;;;;;;;5070339;28;20051;-69
2021/09/28 11:38:05;;;;;;;4.38;1.80;;;;;;;;;;5070104;28;20028;-69
2021/09/28 11:40:36;;;;;;;4.60;2.00;;;;;;;;;;5070100;28;20468;-69
2021/09/28 11:43:24;;;;;;;3.30;2.05;;;;;;;;;;5070183;28;20052;-68
2021/09/28 11:46:25;;;;;;;3.42;2.10;;;;;;;;;;5070108;28;20038;-68
2021/09/28 11:48:57;;;;;;;3.00;1.75;;;;;;;;;;5067021;28;20115;-69
2021/09/28 11:51:25;;;;;;;2.92;1.77;;;;;;;;;;5052004;28;20025;-68
2021/09/28 11:54:18;;;;;;;2.40;1.90;;;;;;;;;;5070219;28;20379;-69
2021/09/28 11:56:46;;;;;;;3.65;2.05;;;;;;;;;;5055709;28;20126;-70
2021/09/28 11:59:14;;;;;;;6.68;1.98;;;;;;;;;;5051852;28;20024;-68
2021/09/28 12:01:40;;;;;;;5.10;2.15;;;;;;;;;;5053513;28;20041;-69
2021/09/28 12:09:35;;;;;;;6.93;2.08;;;;;;;;;;5093687;28;20054;-68
2021/09/28 12:12:05;;;;;;;3.58;1.88;;;;;;;;;;5093736;28;20055;-68
2021/09/28 12:14:36;;;;;;;3.53;1.95;;;;;;;;;;5093485;28;20039;-68
2021/09/28 12:17:11;;;;;;;3.22;1.95;;;;;;;;;;5093600;28;20534;-69
2021/09/28 12:19:38;;;;;;;3.65;2.10;;;;;;;;;;5093578;28;20297;-68
2021/09/28 12:22:04;;;;;;;3.25;1.88;;;;;;;;;;5093516;28;20438;-68
2021/09/28 12:24:42;;;;;;;4.28;1.90;;;;;;;;;;5093259;28;20430;-69
2021/09/28 12:27:08;;;;;;;4.10;2.00;;;;;;;;;;5093468;28;20434;-68
2021/09/28 12:29:45;;;;;;;3.17;1.85;;;;;;;;;;5093119;28;20019;-68
2021/09/28 12:32:21;;;;;;;3.05;2.03;;;;;;;;;;5093361;28;20038;-69
2021/09/28 12:35:05;;;;;;;4.85;1.90;;;;;;;;;;5074541;28;20099;-68
2021/09/28 12:37:48;;;;;;;5.88;2.13;;;;;;;;;;5056674;28;20123;-68
2021/09/28 12:40:17;;;;;;;4.07;1.83;;;;;;;;;;5059001;28;20503;-68
2021/09/28 12:42:43;;;;;;;4.75;1.83;;;;;;;;;;5066195;28;20025;-68
2021/09/28 12:45:16;;;;;;;5.60;1.90;;;;;;;;;;5062914;28;20044;-69
2021/09/28 12:47:55;;;;;;;3.60;1.90;;;;;;;;;;5064688;28;20024;-69
2021/09/28 12:50:28;;;;;;;5.78;2.05;;;;;;;;;;5062157;28;20400;-69
2021/09/28 12:53:19;;;;;;;3.87;2.10;;;;;;;;;;5059150;28;20021;-68
2021/09/28 12:55:46;;;;;;;4.45;1.80;;;;;;;;;;5037072;28;20353;-68
2021/09/28 12:58:15;;;;;;;3.13;1.88;;;;;;;;;;5073140;28;20063;-68
2021/09/28 13:00:42;;;;;;;3.42;1.80;;;;;;;;;;5060410;28;20028;-68
2021/09/28 13:03:19;;;;;;;3.90;1.85;;;;;;;;;;5067429;28;20415;-68
2021/09/28 13:05:49;;;;;;;5.07;1.92;;;;;;;;;;5057151;28;20477;-68
2021/09/28 13:08:19;;;;;;;3.60;1.60;;;;;;;;;;5053949;28;20017;-68
2021/09/28 13:10:45;;;;;;;4.40;2.20;;;;;;;;;;5076105;28;20020;-67
2021/09/28 13:13:10;;;;;;;3.15;1.80;;;;;;;;;;5062116;28;20032;-68
2021/09/28 13:15:36;;;;;;;3.05;1.63;;;;;;;;;;5052012;28;20048;-68
2021/09/28 13:18:02;;;;;;;3.55;1.70;;;;;;;;;;5057278;28;20040;-68
2021/09/28 13:20:27;;;;;;;3.58;1.77;;;;;;;;;;5056382;28;20066;-68
2021/09/28 13:22:52;;;;;;;4.03;1.60;;;;;;;;;;5052035;28;20568;-68
2021/09/28 13:25:18;;;;;;;4.35;1.63;;;;;;;;;;5052067;28;20477;-69
2021/09/28 13:27:44;;;;;;;2.15;1.42;;;;;;;;;;5057412;28;20108;-68
2021/09/28 13:30:10;;;;;;;3.20;1.80;;;;;;;;;;5068702;28;20029;-68
2021/09/28 13:32:35;;;;;;;2.20;1.48;;;;;;;;;;5052253;28;20524;-68
2021/09/28 13:35:02;;;;;;;2.17;1.63;;;;;;;;;;5053271;28;20021;-69
2021/09/28 13:37:28;;;;;;;3.13;1.65;;;;;;;;;;5077564;28;20036;-68
2021/09/28 13:39:54;;;;;;;3.40;1.83;;;;;;;;;;5068573;28;20043;-68
2021/09/28 13:42:21;;;;;;;3.72;1.77;;;;;;;;;;5051743;28;20107;-68
2021/09/28 13:44:46;;;;;;;2.60;1.80;;;;;;;;;;5065751;28;20043;-68
2021/09/28 13:47:12;;;;;;;4.88;1.95;;;;;;;;;;5071330;28;20392;-68
2021/09/28 13:49:37;;;;;;;5.65;1.90;;;;;;;;;;5071393;28;20051;-68
2021/09/28 13:52:06;;;;;;;4.95;1.90;;;;;;;;;;5070815;28;20028;-68
2021/09/28 13:54:31;;;;;;;2.65;1.80;;;;;;;;;;5067396;28;20020;-68
2021/09/28 13:56:57;;;;;;;3.90;1.95;;;;;;;;;;5051366;28;20032;-69
2021/09/28 13:59:22;;;;;;;3.80;2.30;;;;;;;;;;5051182;28;20025;-69
2021/09/28 14:01:48;;;;;;;4.72;2.30;;;;;;;;;;5060976;28;20055;-69
2021/09/28 14:04:13;;;;;;;3.55;2.05;;;;;;;;;;5066253;28;20049;-69
2021/09/28 14:06:39;;;;;;;3.40;2.00;;;;;;;;;;5071171;28;20028;-69
2021/09/28 14:09:04;;;;;;;4.15;2.25;;;;;;;;;;5070818;28;20016;-67
2021/09/28 14:11:30;;;;;;;4.78;2.22;;;;;;;;;;5070953;28;20108;-67
2021/09/28 14:13:55;;;;;;;4.97;2.47;;;;;;;;;;5052440;28;20024;-67
2021/09/28 14:16:21;;;;;;;5.13;2.35;;;;;;;;;;5070228;28;20244;-68
2021/09/28 14:18:48;;;;;;;3.88;2.33;;;;;;;;;;5070821;28;20025;-67
2021/09/28 14:21:13;;;;;;;6.07;2.47;;;;;;;;;;5070862;28;20029;-68
2021/09/28 14:23:38;;;;;;;3.70;2.05;;;;;;;;;;5070080;28;20082;-68
2021/09/28 14:26:04;;;;;;;4.28;2.20;;;;;;;;;;5065961;28;20028;-68
2021/09/28 14:28:30;;;;;;;5.80;2.35;;;;;;;;;;5068733;28;20095;-68
2021/09/28 14:30:56;;;;;;;6.15;2.50;;;;;;;;;;5076564;28;20020;-68
2021/09/28 14:33:23;;;;;;;4.70;2.40;;;;;;;;;;5076779;28;20050;-68
2021/09/28 14:35:49;;;;;;;4.15;2.58;;;;;;;;;;5063282;28;20025;-68
2021/09/28 14:38:14;;;;;;;4.03;2.20;;;;;;;;;;5050593;28;20028;-68
2021/09/28 14:40:40;;;;;;;6.60;2.50;;;;;;;;;;5050903;28;20033;-68
2021/09/28 14:43:05;;;;;;;5.53;2.33;;;;;;;;;;5053182;28;20497;-68
2021/09/28 14:45:31;;;;;;;4.80;2.33;;;;;;;;;;5068750;28;20054;-68
2021/09/28 14:47:57;;;;;;;5.28;2.53;;;;;;;;;;5070493;28;20146;-68
2021/09/28 14:50:23;;;;;;;6.03;2.65;;;;;;;;;;5053156;28;20451;-68
2021/09/28 14:52:49;;;;;;;4.28;2.40;;;;;;;;;;5050473;28;20384;-68